createdAt,value
2024-02-10T00:00:08.895Z,66.80
2024-02-10T00:02:12.114Z,66.83
2024-02-10T00:04:16.696Z,66.86
2024-02-10T00:06:19.194Z,66.92
2024-02-10T00:08:24.139Z,66.83
2024-02-10T00:10:29.334Z,67.01
2024-02-10T00:12:32.995Z,66.87
2024-02-10T00:14:35.886Z,67.15
2024-02-10T00:16:38.622Z,66.76
2024-02-10T00:18:42.587Z,66.97
2024-02-10T00:20:45.167Z,67.08
2024-02-10T00:22:49.511Z,67.38
2024-02-10T00:24:52.837Z,67.77
2024-02-10T00:26:55.656Z,67.42
2024-02-10T00:28:58.786Z,67.69
2024-02-10T00:31:01.565Z,68.50
2024-02-10T00:33:06.108Z,70.28
2024-02-10T00:35:09.225Z,71.44
2024-02-10T00:37:19.067Z,72.77
2024-02-10T00:39:22.614Z,73.78
2024-02-10T00:41:25.759Z,74.63
2024-02-10T00:43:28.714Z,74.90
2024-02-10T00:45:31.844Z,75.33
2024-02-10T00:47:36.547Z,74.63
2024-02-10T00:49:40.996Z,75.31
2024-02-10T00:51:43.917Z,75.63
2024-02-10T00:53:46.730Z,75.31
2024-02-10T00:55:49.168Z,75.42
2024-02-10T00:57:51.592Z,75.56
2024-02-10T00:59:54.036Z,75.31
2024-02-10T01:01:56.444Z,75.53
2024-02-10T01:04:03.201Z,75.74
2024-02-10T01:06:09.233Z,75.30
2024-02-10T01:08:12.573Z,75.72
2024-02-10T01:10:15.459Z,75.43
2024-02-10T01:12:18.608Z,76.50
2024-02-10T01:14:21.061Z,76.67
2024-02-10T01:16:24.996Z,76.92
2024-02-10T01:18:28.000Z,76.37
2024-02-10T01:20:31.054Z,76.87
2024-02-10T01:22:34.290Z,76.90
2024-02-10T01:24:38.640Z,77.45
2024-02-10T01:26:43.054Z,77.61
2024-02-10T01:28:46.568Z,77.97
2024-02-10T01:30:53.016Z,77.64
2024-02-10T01:33:00.588Z,78.22
2024-02-10T01:35:05.621Z,78.29
2024-02-10T01:37:09.545Z,77.72
2024-02-10T01:39:12.396Z,78.27
2024-02-10T01:41:16.362Z,78.22
2024-02-10T01:43:20.238Z,78.30
2024-02-10T01:45:23.284Z,77.98
2024-02-10T01:47:26.872Z,77.55
2024-02-10T01:49:30.390Z,76.67
2024-02-10T01:51:33.029Z,77.65
2024-02-10T01:53:37.246Z,78.53
2024-02-10T01:55:42.232Z,77.51
2024-02-10T01:57:51.209Z,78.60
2024-02-10T01:59:54.618Z,78.24
2024-02-10T02:01:57.503Z,79.21
2024-02-10T02:04:00.142Z,79.19
2024-02-10T02:06:03.325Z,78.76
2024-02-10T02:08:06.598Z,77.58
2024-02-10T02:10:10.715Z,77.95
2024-02-10T02:12:13.382Z,78.49
2024-02-10T02:14:17.252Z,78.10
2024-02-10T02:16:19.832Z,77.65
2024-02-10T02:18:22.829Z,80.69
2024-02-10T02:20:26.754Z,80.38
2024-02-10T02:22:29.290Z,79.73
2024-02-10T02:24:33.221Z,79.55
2024-02-10T02:26:36.190Z,82.31
2024-02-10T02:28:40.011Z,80.45
2024-02-10T02:30:43.414Z,79.96
2024-02-10T02:32:46.232Z,78.60
2024-02-10T02:34:49.613Z,78.50
2024-02-10T02:36:54.831Z,78.71
2024-02-10T02:38:57.293Z,77.85
2024-02-10T02:41:00.321Z,79.20
2024-02-10T02:43:05.375Z,79.57
2024-02-10T02:45:10.668Z,79.94
2024-02-10T02:47:13.846Z,80.60
2024-02-10T02:49:18.295Z,80.25
2024-02-10T02:51:24.095Z,79.66
2024-02-10T02:53:28.302Z,79.13
2024-02-10T02:55:31.566Z,80.08
2024-02-10T02:57:36.405Z,79.86
2024-02-10T02:59:45.478Z,80.94
2024-02-10T03:01:54.303Z,81.10
2024-02-10T03:03:57.478Z,80.79
2024-02-10T03:06:00.511Z,81.19
2024-02-10T03:08:03.434Z,81.63
2024-02-10T03:10:07.362Z,80.93
2024-02-10T03:12:10.400Z,83.08
2024-02-10T03:14:12.957Z,82.66
2024-02-10T03:16:21.585Z,82.58
2024-02-10T03:18:24.930Z,83.23
2024-02-10T03:20:30.715Z,83.52
2024-02-10T03:22:34.127Z,83.25
2024-02-10T03:24:37.281Z,83.77
2024-02-10T03:26:39.775Z,83.34
2024-02-10T03:28:44.331Z,82.84
2024-02-10T03:30:47.741Z,82.65
2024-02-10T03:32:50.712Z,82.98
2024-02-10T03:34:54.025Z,82.92
2024-02-10T03:36:56.946Z,84.71
2024-02-10T03:39:05.935Z,83.22
2024-02-10T03:41:15.453Z,81.09
2024-02-10T03:43:20.211Z,79.95
2024-02-10T03:45:22.689Z,79.30
2024-02-10T03:47:27.396Z,79.69
2024-02-10T03:49:30.746Z,80.82
2024-02-10T03:51:33.458Z,80.13
2024-02-10T03:53:35.944Z,79.87
2024-02-10T03:55:40.452Z,80.24
2024-02-10T03:57:42.882Z,79.42
2024-02-10T03:59:45.848Z,79.48
2024-02-10T04:01:48.826Z,79.34
2024-02-10T04:03:51.451Z,80.35
2024-02-10T04:05:54.528Z,80.09
2024-02-10T04:07:57.051Z,80.79
2024-02-10T04:09:59.927Z,79.62
2024-02-10T04:12:05.441Z,81.32
2024-02-10T04:14:07.946Z,80.46
2024-02-10T04:16:14.714Z,81.50
2024-02-10T04:18:17.446Z,80.80
2024-02-10T04:20:21.514Z,81.33
2024-02-10T04:22:24.762Z,79.91
2024-02-10T04:24:28.521Z,80.72
2024-02-10T04:26:30.985Z,80.76
2024-02-10T04:28:37.542Z,80.97
2024-02-10T04:30:41.678Z,82.81
2024-02-10T04:32:48.344Z,83.80
2024-02-10T04:34:51.000Z,84.23
2024-02-10T04:36:53.521Z,84.84
2024-02-10T04:38:58.377Z,85.18
2024-02-10T04:41:06.230Z,85.01
2024-02-10T04:43:09.198Z,86.87
2024-02-10T04:45:13.093Z,85.84
2024-02-10T04:47:15.507Z,86.04
2024-02-10T04:49:20.751Z,87.18
2024-02-10T04:51:28.067Z,86.69
2024-02-10T04:53:30.475Z,86.67
2024-02-10T04:55:32.982Z,86.98
2024-02-10T04:57:35.482Z,87.41
2024-02-10T04:59:40.301Z,85.91
2024-02-10T05:01:43.604Z,86.82
2024-02-10T05:03:46.141Z,86.80
2024-02-10T05:05:49.276Z,86.05
2024-02-10T05:08:00.384Z,86.38
2024-02-10T05:10:03.584Z,85.76
2024-02-10T05:12:06.586Z,86.16
2024-02-10T05:14:12.954Z,86.98
2024-02-10T05:16:19.368Z,86.59
2024-02-10T05:18:21.958Z,86.02
2024-02-10T05:20:26.639Z,85.91
2024-02-10T05:22:29.823Z,85.04
2024-02-10T05:24:33.787Z,85.12
2024-02-10T05:26:38.073Z,84.86
2024-02-10T05:28:42.448Z,84.23
2024-02-10T05:30:44.964Z,83.93
2024-02-10T05:32:47.872Z,86.08
2024-02-10T05:34:51.004Z,85.58
2024-02-10T05:36:55.349Z,85.41
2024-02-10T05:38:59.003Z,85.06
2024-02-10T05:41:06.167Z,85.10
2024-02-10T05:43:10.461Z,85.20
2024-02-10T05:45:19.169Z,84.73
2024-02-10T05:47:21.678Z,84.79
2024-02-10T05:49:25.295Z,84.79
2024-02-10T05:51:27.868Z,84.75
2024-02-10T05:53:30.291Z,84.88
2024-02-10T05:55:34.490Z,84.96
2024-02-10T05:57:39.048Z,84.76
2024-02-10T05:59:42.297Z,84.60
2024-02-10T06:01:48.506Z,84.41
2024-02-10T06:03:54.034Z,84.74
2024-02-10T06:05:56.776Z,83.89
2024-02-10T06:07:59.581Z,85.08
2024-02-10T06:10:02.796Z,85.10
2024-02-10T06:12:06.499Z,83.83
2024-02-10T06:14:10.136Z,83.79
2024-02-10T06:16:13.352Z,83.63
2024-02-10T06:18:15.824Z,84.19
2024-02-10T06:20:24.690Z,83.95
2024-02-10T06:22:28.234Z,83.70
2024-02-10T06:24:35.608Z,84.07
2024-02-10T06:26:38.949Z,83.91
2024-02-10T06:28:42.110Z,83.77
2024-02-10T06:30:48.535Z,83.88
2024-02-10T06:32:51.105Z,82.88
2024-02-10T06:34:55.124Z,83.63
2024-02-10T06:36:59.812Z,83.21
2024-02-10T06:39:02.741Z,82.29
2024-02-10T06:41:05.502Z,83.56
2024-02-10T06:43:09.832Z,83.21
2024-02-10T06:45:16.407Z,82.81
2024-02-10T06:47:20.117Z,83.69
2024-02-10T06:49:22.759Z,84.27
2024-02-10T06:51:26.248Z,83.65
2024-02-10T06:53:29.498Z,84.21
2024-02-10T06:55:32.919Z,83.83
2024-02-10T06:57:43.142Z,83.77
2024-02-10T06:59:47.286Z,83.57
2024-02-10T07:01:54.104Z,83.09
2024-02-10T07:03:59.005Z,82.62
2024-02-10T07:06:02.214Z,83.25
2024-02-10T07:08:07.510Z,83.71
2024-02-10T07:10:17.514Z,83.64
2024-02-10T07:12:20.107Z,82.59
2024-02-10T07:14:25.017Z,82.17
2024-02-10T07:16:27.854Z,83.07
2024-02-10T07:18:31.172Z,83.04
2024-02-10T07:20:34.200Z,83.50
2024-02-10T07:22:36.647Z,82.85
2024-02-10T07:24:40.067Z,82.08
2024-02-10T07:26:44.294Z,82.90
2024-02-10T07:28:51.115Z,83.01
2024-02-10T07:30:54.360Z,83.53
2024-02-10T07:33:01.993Z,83.01
2024-02-10T07:35:06.149Z,83.40
2024-02-10T07:37:11.283Z,82.92
2024-02-10T07:39:16.423Z,82.37
2024-02-10T07:41:19.230Z,83.31
2024-02-10T07:43:22.503Z,82.48
2024-02-10T07:45:25.190Z,83.01
2024-02-10T07:47:28.404Z,82.00
2024-02-10T07:49:32.069Z,83.19
2024-02-10T07:51:35.260Z,81.69
2024-02-10T07:53:37.733Z,82.39
2024-02-10T07:55:40.351Z,81.78
2024-02-10T07:57:43.290Z,81.80
2024-02-10T07:59:45.691Z,82.40
2024-02-10T08:01:48.313Z,82.38
2024-02-10T08:03:50.862Z,81.74
2024-02-10T08:05:53.876Z,81.87
2024-02-10T08:07:59.005Z,82.31
2024-02-10T08:10:02.753Z,82.00
2024-02-10T08:12:05.653Z,82.40
2024-02-10T08:14:09.261Z,82.56
2024-02-10T08:16:11.724Z,82.17
2024-02-10T08:18:14.668Z,83.30
2024-02-10T08:20:21.691Z,81.98
2024-02-10T08:22:29.305Z,82.14
2024-02-10T08:24:32.927Z,81.72
2024-02-10T08:26:39.239Z,83.04
2024-02-10T08:28:41.804Z,81.61
2024-02-10T08:30:45.818Z,82.03
2024-02-10T08:32:48.812Z,82.14
2024-02-10T08:34:52.873Z,82.57
2024-02-10T08:36:55.347Z,82.23
2024-02-10T08:39:05.664Z,81.99
2024-02-10T08:41:08.938Z,83.08
2024-02-10T08:43:11.533Z,82.74
2024-02-10T08:45:16.878Z,81.44
2024-02-10T08:47:19.817Z,82.63
2024-02-10T08:49:22.841Z,82.24
2024-02-10T08:51:26.299Z,82.05
2024-02-10T08:53:30.896Z,81.90
2024-02-10T08:55:33.406Z,82.36
2024-02-10T08:57:38.315Z,81.82
2024-02-10T08:59:47.375Z,82.13
2024-02-10T09:01:50.336Z,82.11
2024-02-10T09:03:54.925Z,83.18
2024-02-10T09:05:57.933Z,82.39
2024-02-10T09:08:00.568Z,82.54
2024-02-10T09:10:03.192Z,82.28
2024-02-10T09:12:06.600Z,83.25
2024-02-10T09:14:10.064Z,81.65
2024-02-10T09:16:13.811Z,82.36
2024-02-10T09:18:16.599Z,81.97
2024-02-10T09:20:20.010Z,82.76
2024-02-10T09:22:22.484Z,82.38
2024-02-10T09:24:26.670Z,81.93
2024-02-10T09:26:29.220Z,82.05
2024-02-10T09:28:33.012Z,82.24
2024-02-10T09:30:38.333Z,82.03
2024-02-10T09:32:40.854Z,81.69
2024-02-10T09:34:43.444Z,82.34
2024-02-10T09:36:46.654Z,82.27
2024-02-10T09:38:49.141Z,82.14
2024-02-10T09:40:59.466Z,82.23
2024-02-10T09:43:06.277Z,82.10
2024-02-10T09:45:11.919Z,81.80
2024-02-10T09:47:22.158Z,81.56
2024-02-10T09:49:26.647Z,81.59
2024-02-10T09:51:29.128Z,81.95
2024-02-10T09:53:31.932Z,82.52
2024-02-10T09:55:36.915Z,82.92
2024-02-10T09:57:42.247Z,81.68
2024-02-10T09:59:44.858Z,81.77
2024-02-10T10:01:47.849Z,81.67
2024-02-10T10:03:50.436Z,81.93
2024-02-10T10:05:53.155Z,81.36
2024-02-10T10:07:55.816Z,82.40
2024-02-10T10:10:00.062Z,81.40
2024-02-10T10:12:02.982Z,82.56
2024-02-10T10:14:05.486Z,81.80
2024-02-10T10:16:12.164Z,81.45
2024-02-10T10:18:16.571Z,82.10
2024-02-10T10:20:20.664Z,81.27
2024-02-10T10:22:23.231Z,81.72
2024-02-10T10:24:29.790Z,81.96
2024-02-10T10:26:33.728Z,81.91
2024-02-10T10:28:37.618Z,81.82
2024-02-10T10:30:44.018Z,81.23
2024-02-10T10:32:53.852Z,81.29
2024-02-10T10:34:59.928Z,81.74
2024-02-10T10:37:06.361Z,82.51
2024-02-10T10:39:12.862Z,82.49
2024-02-10T10:41:20.717Z,82.18
2024-02-10T10:43:26.149Z,81.41
2024-02-10T10:45:31.987Z,81.12
2024-02-10T10:47:43.299Z,81.51
2024-02-10T10:49:45.881Z,81.24
2024-02-10T10:52:03.707Z,81.67
2024-02-10T10:54:09.754Z,82.50
2024-02-10T10:56:16.724Z,81.47
2024-02-10T10:58:23.172Z,81.01
2024-02-10T11:00:28.265Z,82.57
2024-02-10T11:02:44.189Z,81.73
2024-02-10T11:04:47.764Z,81.29
2024-02-10T11:06:57.961Z,81.57
2024-02-10T11:09:04.435Z,81.72
2024-02-10T11:11:08.870Z,82.76
2024-02-10T11:13:24.390Z,81.56
2024-02-10T11:15:28.042Z,81.55
2024-02-10T11:17:36.775Z,81.27
2024-02-10T11:19:40.222Z,81.71
2024-02-10T11:21:42.968Z,81.16
2024-02-10T11:23:56.943Z,81.29
2024-02-10T11:26:00.964Z,81.27
2024-02-10T11:28:04.655Z,81.57
2024-02-10T11:30:08.585Z,81.29
2024-02-10T11:32:14.220Z,82.60
2024-02-10T11:34:21.206Z,81.73
2024-02-10T11:36:27.735Z,82.18
2024-02-10T11:38:32.240Z,82.08
2024-02-10T11:40:35.395Z,82.03
2024-02-10T11:42:38.674Z,81.54
2024-02-10T11:44:41.106Z,82.25
2024-02-10T11:46:43.957Z,82.94
2024-02-10T11:48:47.489Z,82.39
2024-02-10T11:51:02.490Z,82.99
2024-02-10T11:53:07.081Z,82.34
2024-02-10T11:55:11.964Z,82.20
2024-02-10T11:57:14.595Z,82.24
2024-02-10T11:59:18.760Z,82.52
2024-02-10T12:01:21.432Z,83.14
2024-02-10T12:03:25.980Z,82.51
2024-02-10T12:05:32.413Z,82.33
2024-02-10T12:07:38.525Z,82.20
2024-02-10T12:09:41.669Z,82.60
2024-02-10T12:11:46.091Z,82.19
2024-02-10T12:13:51.450Z,83.03
2024-02-10T12:16:01.124Z,82.92
2024-02-10T12:18:03.922Z,82.71
2024-02-10T12:20:06.970Z,82.49
2024-02-10T12:22:11.531Z,82.25
2024-02-10T12:24:23.238Z,82.52
2024-02-10T12:26:26.135Z,82.18
2024-02-10T12:28:30.043Z,82.04
2024-02-10T12:30:33.695Z,83.63
2024-02-10T12:32:36.721Z,82.98
2024-02-10T12:34:39.405Z,82.25
2024-02-10T12:36:42.081Z,82.27
2024-02-10T12:38:45.304Z,81.91
2024-02-10T12:40:47.894Z,83.80
2024-02-10T12:42:52.686Z,83.07
2024-02-10T12:44:56.013Z,82.81
2024-02-10T12:46:58.484Z,82.64
2024-02-10T12:49:02.196Z,81.95
2024-02-10T12:51:05.019Z,82.04
2024-02-10T12:53:07.604Z,82.78
2024-02-10T12:55:15.278Z,82.34
2024-02-10T12:57:20.346Z,81.66
2024-02-10T12:59:24.099Z,81.68
2024-02-10T13:01:27.593Z,82.30
2024-02-10T13:03:30.416Z,83.05
2024-02-10T13:05:33.565Z,81.96
2024-02-10T13:07:36.148Z,83.20
2024-02-10T13:09:38.655Z,83.59
2024-02-10T13:11:41.131Z,82.80
2024-02-10T13:13:46.281Z,82.99
2024-02-10T13:15:48.873Z,83.29
2024-02-10T13:17:53.213Z,81.96
2024-02-10T13:19:56.124Z,83.12
2024-02-10T13:21:58.743Z,83.75
2024-02-10T13:24:01.186Z,82.50
2024-02-10T13:26:03.906Z,82.99
2024-02-10T13:28:13.030Z,81.92
2024-02-10T13:30:15.752Z,81.64
2024-02-10T13:32:18.669Z,82.83
2024-02-10T13:34:31.684Z,81.44
2024-02-10T13:36:44.625Z,81.79
2024-02-10T13:39:05.289Z,82.91
2024-02-10T13:41:26.561Z,81.94
2024-02-10T13:43:47.658Z,82.06
2024-02-10T13:46:08.808Z,82.88
2024-02-10T13:48:29.618Z,84.30
2024-02-10T13:50:50.516Z,82.95
2024-02-10T13:53:11.222Z,84.01
2024-02-10T13:55:32.054Z,84.11
2024-02-10T13:57:53.831Z,82.76
2024-02-10T13:59:56.282Z,83.58
2024-02-10T14:02:07.413Z,84.47
2024-02-10T14:04:16.718Z,84.73
2024-02-10T14:06:33.884Z,83.83
2024-02-10T14:08:43.021Z,83.41
2024-02-10T14:10:56.338Z,84.45
2024-02-10T14:13:10.813Z,84.42
2024-02-10T14:15:22.245Z,83.57
2024-02-10T14:17:26.433Z,85.02
2024-02-10T14:19:28.906Z,84.58
2024-02-10T14:21:34.850Z,83.63
2024-02-10T14:23:37.441Z,83.06
2024-02-10T14:25:40.329Z,83.02
2024-02-10T14:27:44.339Z,83.49
2024-02-10T14:29:48.083Z,84.17
2024-02-10T14:31:54.197Z,82.69
2024-02-10T14:33:57.068Z,82.33
2024-02-10T14:36:18.984Z,81.66
2024-02-10T14:38:48.237Z,81.83
2024-02-10T14:40:50.813Z,82.63
2024-02-10T14:42:56.061Z,82.37
2024-02-10T14:44:58.603Z,82.68
2024-02-10T14:47:03.803Z,82.65
2024-02-10T14:49:06.407Z,82.44
2024-02-10T14:51:12.803Z,82.61
2024-02-10T14:53:15.394Z,82.69
2024-02-10T14:55:19.847Z,82.76
2024-02-10T14:57:23.731Z,82.88
2024-02-10T14:59:26.188Z,82.58
2024-02-10T15:01:33.075Z,82.11
2024-02-10T15:03:39.467Z,82.22
2024-02-10T15:05:43.753Z,82.08
2024-02-10T15:07:46.176Z,81.91
2024-02-10T15:09:48.758Z,81.48
2024-02-10T15:11:51.210Z,80.89
2024-02-10T15:13:53.672Z,80.55
2024-02-10T15:15:56.174Z,80.08
2024-02-10T15:18:02.047Z,79.66
2024-02-10T15:20:07.744Z,79.24
2024-02-10T15:22:11.027Z,79.20
2024-02-10T15:24:13.824Z,79.03
2024-02-10T15:26:22.061Z,78.67
2024-02-10T15:28:25.061Z,78.06
2024-02-10T15:30:27.652Z,78.14
2024-02-10T15:32:31.909Z,77.25
2024-02-10T15:34:45.343Z,76.08
2024-02-10T15:36:54.707Z,75.15
2024-02-10T15:39:01.693Z,74.57
2024-02-10T15:41:04.951Z,73.55
2024-02-10T15:43:08.019Z,73.43
2024-02-10T15:45:11.815Z,73.70
2024-02-10T15:47:16.190Z,73.85
2024-02-10T15:49:22.014Z,73.21
2024-02-10T15:51:24.512Z,73.12
2024-02-10T15:53:29.694Z,73.19
2024-02-10T15:55:32.207Z,72.76
2024-02-10T15:57:34.681Z,72.72
2024-02-10T15:59:39.758Z,72.52
2024-02-10T16:01:43.275Z,72.76
2024-02-10T16:03:46.382Z,71.33
2024-02-10T16:05:53.898Z,70.04
2024-02-10T16:07:56.473Z,69.25
2024-02-10T16:09:58.891Z,69.54
2024-02-10T16:12:01.674Z,69.15
2024-02-10T16:14:04.277Z,67.87
2024-02-10T16:16:07.256Z,67.50
2024-02-10T16:18:16.257Z,68.47
2024-02-10T16:20:23.189Z,69.12
2024-02-10T16:22:28.155Z,66.95
2024-02-10T16:24:31.342Z,66.88
2024-02-10T16:26:35.077Z,66.69
2024-02-10T16:28:39.823Z,66.46
2024-02-10T16:30:43.005Z,66.43
2024-02-10T16:32:50.402Z,65.55
2024-02-10T16:34:55.892Z,67.13
2024-02-10T16:37:00.021Z,64.87
2024-02-10T16:39:04.391Z,64.90
2024-02-10T16:41:06.828Z,64.42
2024-02-10T16:43:09.797Z,64.68
2024-02-10T16:45:12.244Z,64.83
2024-02-10T16:47:15.382Z,64.60
2024-02-10T16:49:22.774Z,64.06
2024-02-10T16:51:26.677Z,64.68
2024-02-10T16:53:29.327Z,65.08
2024-02-10T16:55:35.636Z,65.06
2024-02-10T16:57:39.198Z,64.57
2024-02-10T16:59:41.613Z,64.82
2024-02-10T17:01:44.742Z,64.20
2024-02-10T17:03:47.356Z,64.95
2024-02-10T17:05:59.254Z,64.92
2024-02-10T17:08:04.714Z,63.47
2024-02-10T17:10:08.376Z,63.11
2024-02-10T17:12:11.407Z,63.38
2024-02-10T17:14:14.010Z,63.64
2024-02-10T17:16:19.486Z,61.97
2024-02-10T17:18:22.203Z,62.04
2024-02-10T17:20:27.344Z,62.93
2024-02-10T17:22:29.838Z,63.06
2024-02-10T17:24:32.355Z,63.40
2024-02-10T17:26:40.255Z,62.87
2024-02-10T17:28:44.868Z,62.59
2024-02-10T17:30:49.660Z,62.68
2024-02-10T17:32:52.223Z,63.19
2024-02-10T17:34:56.879Z,62.52
2024-02-10T17:37:00.218Z,62.21
2024-02-10T17:39:02.833Z,62.77
2024-02-10T17:41:10.741Z,62.33
2024-02-10T17:43:17.813Z,63.46
2024-02-10T17:45:20.431Z,63.08
2024-02-10T17:47:25.524Z,63.68
2024-02-10T17:49:28.175Z,64.21
2024-02-10T17:51:31.704Z,64.13
2024-02-10T17:53:36.799Z,64.36
2024-02-10T17:55:40.078Z,64.21
2024-02-10T17:57:43.803Z,64.20
2024-02-10T17:59:46.740Z,64.03
2024-02-10T18:01:49.704Z,64.34
2024-02-10T18:03:53.065Z,63.84
2024-02-10T18:05:55.958Z,63.90
2024-02-10T18:07:59.699Z,64.41
2024-02-10T18:10:06.370Z,64.84
2024-02-10T18:12:10.306Z,64.50
2024-02-10T18:14:14.399Z,64.52
2024-02-10T18:16:17.603Z,64.78
2024-02-10T18:18:20.630Z,64.84
2024-02-10T18:20:23.437Z,65.17
2024-02-10T18:22:29.962Z,64.57
2024-02-10T18:24:34.320Z,65.15
2024-02-10T18:26:41.194Z,65.11
2024-02-10T18:28:45.797Z,65.31
2024-02-10T18:30:50.128Z,65.73
2024-02-10T18:32:52.713Z,65.68
2024-02-10T18:34:56.452Z,66.42
2024-02-10T18:36:59.067Z,65.90
2024-02-10T18:39:01.528Z,65.89
2024-02-10T18:41:04.551Z,65.95
2024-02-10T18:43:07.712Z,65.61
2024-02-10T18:45:11.584Z,66.03
2024-02-10T18:47:15.103Z,66.06
2024-02-10T18:49:18.211Z,66.25
2024-02-10T18:51:22.945Z,66.53
2024-02-10T18:53:25.389Z,65.82
2024-02-10T18:55:30.451Z,65.81
2024-02-10T18:57:33.019Z,66.14
2024-02-10T18:59:36.473Z,66.79
2024-02-10T19:01:43.453Z,66.40
2024-02-10T19:03:49.361Z,66.68
2024-02-10T19:05:53.131Z,66.11
2024-02-10T19:07:56.988Z,66.32
2024-02-10T19:10:00.434Z,65.59
2024-02-10T19:12:03.204Z,65.55
2024-02-10T19:14:08.674Z,64.91
2024-02-10T19:16:11.486Z,65.02
2024-02-10T19:18:16.257Z,63.73
2024-02-10T19:20:20.665Z,63.12
2024-02-10T19:22:24.238Z,63.68
2024-02-10T19:24:27.601Z,63.09
2024-02-10T19:26:30.504Z,63.41
2024-02-10T19:28:33.587Z,63.21
2024-02-10T19:30:39.480Z,63.07
2024-02-10T19:32:44.435Z,62.86
2024-02-10T19:34:47.388Z,62.33
2024-02-10T19:36:50.015Z,62.29
2024-02-10T19:38:52.575Z,62.55
2024-02-10T19:40:56.676Z,63.01
2024-02-10T19:42:59.552Z,63.15
2024-02-10T19:45:02.082Z,63.31
2024-02-10T19:47:04.932Z,63.45
2024-02-10T19:49:10.713Z,63.68
2024-02-10T19:51:15.990Z,62.97
2024-02-10T19:53:21.040Z,63.27
2024-02-10T19:55:24.246Z,63.00
2024-02-10T19:57:31.095Z,62.50
2024-02-10T19:59:33.531Z,61.98
2024-02-10T20:01:36.400Z,62.00
2024-02-10T20:03:40.209Z,62.11
2024-02-10T20:05:43.286Z,62.27
2024-02-10T20:07:46.438Z,62.42
2024-02-10T20:09:51.990Z,62.63
2024-02-10T20:11:55.798Z,62.82
2024-02-10T20:14:01.227Z,62.99
2024-02-10T20:16:04.044Z,63.05
2024-02-10T20:18:07.607Z,63.25
2024-02-10T20:20:18.828Z,62.90
2024-02-10T20:22:22.341Z,63.01
2024-02-10T20:24:29.730Z,62.93
2024-02-10T20:26:33.304Z,62.32
2024-02-10T20:28:36.661Z,62.68
2024-02-10T20:30:42.124Z,63.32
2024-02-10T20:32:45.497Z,62.78
2024-02-10T20:34:48.393Z,62.49
2024-02-10T20:36:51.362Z,63.16
2024-02-10T20:38:54.198Z,63.03
2024-02-10T20:40:57.085Z,62.61
2024-02-10T20:43:02.725Z,63.14
2024-02-10T20:45:06.059Z,63.53
2024-02-10T20:47:08.523Z,64.04
2024-02-10T20:49:11.074Z,63.71
2024-02-10T20:51:15.834Z,63.78
2024-02-10T20:53:18.284Z,63.49
2024-02-10T20:55:24.234Z,63.25
2024-02-10T20:57:30.491Z,63.42
2024-02-10T20:59:34.339Z,63.71
2024-02-10T21:01:36.920Z,63.68
2024-02-10T21:03:39.505Z,63.53
2024-02-10T21:05:42.482Z,64.33
2024-02-10T21:07:46.237Z,64.48
2024-02-10T21:09:49.592Z,64.17
2024-02-10T21:11:52.116Z,64.50
2024-02-10T21:13:54.693Z,65.21
2024-02-10T21:16:00.015Z,65.12
2024-02-10T21:18:06.755Z,65.13
2024-02-10T21:20:16.215Z,65.47
2024-02-10T21:22:19.637Z,65.38
2024-02-10T21:24:24.776Z,65.59
2024-02-10T21:26:28.117Z,65.88
2024-02-10T21:28:31.153Z,65.27
2024-02-10T21:30:34.613Z,65.40
2024-02-10T21:32:37.523Z,65.73
2024-02-10T21:34:40.523Z,66.09
2024-02-10T21:36:46.523Z,65.78
2024-02-10T21:38:49.595Z,65.92
2024-02-10T21:40:52.299Z,65.93
2024-02-10T21:42:54.818Z,66.20
2024-02-10T21:45:00.027Z,66.29
2024-02-10T21:47:02.909Z,66.54
2024-02-10T21:49:05.653Z,66.73
2024-02-10T21:51:08.589Z,67.16
2024-02-10T21:53:11.846Z,67.25
2024-02-10T21:55:14.721Z,67.66
2024-02-10T21:57:18.133Z,67.21
2024-02-10T21:59:20.660Z,67.32
2024-02-10T22:01:24.437Z,67.05
2024-02-10T22:03:26.956Z,66.73
2024-02-10T22:05:30.330Z,67.05
2024-02-10T22:07:33.274Z,66.68
2024-02-10T22:09:35.829Z,66.74
2024-02-10T22:11:38.560Z,66.60
2024-02-10T22:13:41.752Z,66.78
2024-02-10T22:15:44.344Z,66.85
2024-02-10T22:17:50.586Z,66.71
2024-02-10T22:19:53.221Z,66.74
2024-02-10T22:21:55.997Z,67.01
2024-02-10T22:23:59.258Z,66.95
2024-02-10T22:26:02.440Z,66.90
2024-02-10T22:28:05.380Z,66.98
2024-02-10T22:30:08.564Z,66.61
2024-02-10T22:32:12.568Z,66.73
2024-02-10T22:34:16.342Z,67.15
2024-02-10T22:36:20.096Z,67.07
2024-02-10T22:38:22.672Z,67.22
2024-02-10T22:40:28.015Z,67.03
2024-02-10T22:42:33.121Z,67.79
2024-02-10T22:44:35.940Z,67.89
2024-02-10T22:46:42.841Z,67.51
2024-02-10T22:48:45.755Z,67.65
2024-02-10T22:50:49.027Z,67.72
2024-02-10T22:52:52.117Z,67.45
2024-02-10T22:54:55.805Z,67.67
2024-02-10T22:56:58.572Z,67.84
2024-02-10T22:59:01.143Z,67.78
2024-02-10T23:01:04.129Z,67.96
2024-02-10T23:03:06.847Z,67.86
2024-02-10T23:05:09.641Z,67.92
2024-02-10T23:07:12.840Z,67.96
2024-02-10T23:09:15.504Z,67.85
2024-02-10T23:11:21.310Z,67.93
2024-02-10T23:13:27.329Z,68.08
2024-02-10T23:15:32.788Z,68.12
2024-02-10T23:17:38.982Z,68.17
2024-02-10T23:19:51.275Z,68.21
2024-02-10T23:21:54.713Z,68.28
2024-02-10T23:24:01.169Z,68.21
2024-02-10T23:26:04.672Z,68.69
2024-02-10T23:28:07.096Z,68.50
2024-02-10T23:30:11.464Z,68.63
2024-02-10T23:32:14.500Z,69.12
2024-02-10T23:34:20.108Z,68.99
2024-02-10T23:36:29.189Z,69.02
2024-02-10T23:38:32.187Z,68.99
2024-02-10T23:40:36.345Z,68.88
2024-02-10T23:42:38.974Z,69.23
2024-02-10T23:44:43.233Z,69.18
2024-02-10T23:46:45.784Z,69.13
2024-02-10T23:48:54.045Z,68.96
2024-02-10T23:50:58.719Z,69.31
2024-02-10T23:53:02.929Z,69.25
2024-02-10T23:55:08.329Z,68.87
2024-02-10T23:57:11.623Z,69.45
2024-02-10T23:59:14.584Z,69.27
